Gibbsboro, New Jersey
Current Conditions -  °F | °C
As of 6:54 AM on Monday 24 Nov 2014 (Local Time) from KVAY Reporting Station
Light Rain Light Rain  
Wind Chill: 63°   Ceiling: 1000
Heat Index: 63°   Visibility: 4mi
Dew Point: 62°   Wind: 10mph
Humidity: 97%   Direction: 180°S
Pressure: 29.7"   Gusts: 22mph
Location:  39.84°N, 74.96°W
Report Text: KVAY 241154Z AUTO 18009G19KT 4SM -RA BR OVC010 17/17 A2970 RMK AO2 PK WND 18029/1100 CIG 008V014 SLP056 P0006 60040 70040 T01720167 10178 20139 56005
Loading
Personal Weather Stations






























Interactive Weather Map New forecast layout! Learn more

10-Day Weather Forecast

Advertisements
Track Severe Weather on mobile